sensor_id;sensor_type;location;lat;lon;timestamp;P1;durP1;ratioP1;P2;durP2;ratioP2
33993;SDS011;20673;48.980;8.138;2024-02-26T00:00:44;2.12;;;1.20;;
33993;SDS011;20673;48.980;8.138;2024-02-26T00:03:11;2.72;;;1.20;;
33993;SDS011;20673;48.980;8.138;2024-02-26T00:05:38;2.22;;;1.30;;
33993;SDS011;20673;48.980;8.138;2024-02-26T00:08:04;2.35;;;1.37;;
33993;SDS011;20673;48.980;8.138;2024-02-26T00:10:31;3.37;;;1.30;;
33993;SDS011;20673;48.980;8.138;2024-02-26T00:12:57;2.45;;;1.40;;
33993;SDS011;20673;48.980;8.138;2024-02-26T00:15:24;2.02;;;1.20;;
33993;SDS011;20673;48.980;8.138;2024-02-26T00:17:50;1.87;;;1.15;;
33993;SDS011;20673;48.980;8.138;2024-02-26T00:20:16;2.57;;;1.40;;
33993;SDS011;20673;48.980;8.138;2024-02-26T00:22:42;2.25;;;1.35;;
33993;SDS011;20673;48.980;8.138;2024-02-26T00:25:08;4.50;;;1.90;;
33993;SDS011;20673;48.980;8.138;2024-02-26T00:27:35;2.90;;;1.60;;
33993;SDS011;20673;48.980;8.138;2024-02-26T00:30:01;4.72;;;2.22;;
33993;SDS011;20673;48.980;8.138;2024-02-26T00:32:27;3.42;;;2.10;;
33993;SDS011;20673;48.980;8.138;2024-02-26T00:34:53;4.40;;;1.70;;
33993;SDS011;20673;48.980;8.138;2024-02-26T00:37:19;3.57;;;1.97;;
33993;SDS011;20673;48.980;8.138;2024-02-26T00:39:45;4.17;;;1.97;;
33993;SDS011;20673;48.980;8.138;2024-02-26T00:42:12;3.17;;;1.80;;
33993;SDS011;20673;48.980;8.138;2024-02-26T00:44:38;5.53;;;2.08;;
33993;SDS011;20673;48.980;8.138;2024-02-26T00:47:04;3.67;;;1.93;;
33993;SDS011;20673;48.980;8.138;2024-02-26T00:49:30;1.70;;;1.05;;
33993;SDS011;20673;48.980;8.138;2024-02-26T00:51:56;1.40;;;0.75;;
33993;SDS011;20673;48.980;8.138;2024-02-26T00:54:22;2.55;;;0.90;;
33993;SDS011;20673;48.980;8.138;2024-02-26T00:56:48;1.92;;;0.80;;
33993;SDS011;20673;48.980;8.138;2024-02-26T00:59:14;0.67;;;0.43;;
33993;SDS011;20673;48.980;8.138;2024-02-26T01:01:40;1.47;;;0.50;;
33993;SDS011;20673;48.980;8.138;2024-02-26T01:04:07;1.75;;;0.40;;
33993;SDS011;20673;48.980;8.138;2024-02-26T01:06:33;1.27;;;0.53;;
33993;SDS011;20673;48.980;8.138;2024-02-26T01:08:59;0.40;;;0.40;;
33993;SDS011;20673;48.980;8.138;2024-02-26T01:11:25;2.10;;;0.60;;
33993;SDS011;20673;48.980;8.138;2024-02-26T01:13:51;2.33;;;0.55;;
33993;SDS011;20673;48.980;8.138;2024-02-26T01:16:20;1.52;;;0.50;;
33993;SDS011;20673;48.980;8.138;2024-02-26T01:18:46;0.45;;;0.35;;
33993;SDS011;20673;48.980;8.138;2024-02-26T01:21:12;1.17;;;0.55;;
33993;SDS011;20673;48.980;8.138;2024-02-26T01:23:38;3.75;;;0.65;;
33993;SDS011;20673;48.980;8.138;2024-02-26T01:26:04;2.20;;;0.53;;
33993;SDS011;20673;48.980;8.138;2024-02-26T01:28:30;1.37;;;0.62;;
33993;SDS011;20673;48.980;8.138;2024-02-26T01:30:57;0.90;;;0.50;;
33993;SDS011;20673;48.980;8.138;2024-02-26T01:33:25;0.72;;;0.30;;
33993;SDS011;20673;48.980;8.138;2024-02-26T01:35:52;0.70;;;0.40;;
33993;SDS011;20673;48.980;8.138;2024-02-26T01:38:18;0.70;;;0.45;;
33993;SDS011;20673;48.980;8.138;2024-02-26T01:40:44;1.37;;;0.50;;
33993;SDS011;20673;48.980;8.138;2024-02-26T01:43:11;1.27;;;0.70;;
33993;SDS011;20673;48.980;8.138;2024-02-26T01:45:37;0.80;;;0.40;;
33993;SDS011;20673;48.980;8.138;2024-02-26T01:48:03;2.33;;;0.72;;
33993;SDS011;20673;48.980;8.138;2024-02-26T01:50:30;5.15;;;1.60;;
33993;SDS011;20673;48.980;8.138;2024-02-26T01:52:56;1.52;;;0.88;;
33993;SDS011;20673;48.980;8.138;2024-02-26T01:55:23;1.37;;;0.68;;
33993;SDS011;20673;48.980;8.138;2024-02-26T01:57:51;0.90;;;0.30;;
33993;SDS011;20673;48.980;8.138;2024-02-26T02:00:19;1.40;;;0.30;;
33993;SDS011;20673;48.980;8.138;2024-02-26T02:02:47;1.43;;;0.50;;
33993;SDS011;20673;48.980;8.138;2024-02-26T02:05:15;1.57;;;0.30;;
33993;SDS011;20673;48.980;8.138;2024-02-26T02:07:44;2.87;;;0.67;;
33993;SDS011;20673;48.980;8.138;2024-02-26T02:10:12;1.80;;;1.05;;
33993;SDS011;20673;48.980;8.138;2024-02-26T02:12:38;1.15;;;0.47;;
33993;SDS011;20673;48.980;8.138;2024-02-26T02:15:05;1.10;;;0.60;;
33993;SDS011;20673;48.980;8.138;2024-02-26T02:17:32;1.40;;;0.60;;
33993;SDS011;20673;48.980;8.138;2024-02-26T02:19:59;1.27;;;0.57;;
33993;SDS011;20673;48.980;8.138;2024-02-26T02:22:26;1.10;;;0.75;;
33993;SDS011;20673;48.980;8.138;2024-02-26T02:24:53;1.57;;;0.98;;
33993;SDS011;20673;48.980;8.138;2024-02-26T02:27:19;0.97;;;0.70;;
33993;SDS011;20673;48.980;8.138;2024-02-26T02:29:46;1.17;;;0.80;;
33993;SDS011;20673;48.980;8.138;2024-02-26T02:32:13;0.78;;;0.35;;
33993;SDS011;20673;48.980;8.138;2024-02-26T02:34:42;1.60;;;0.50;;
33993;SDS011;20673;48.980;8.138;2024-02-26T02:37:09;1.02;;;0.47;;
33993;SDS011;20673;48.980;8.138;2024-02-26T02:39:35;1.12;;;0.50;;
33993;SDS011;20673;48.980;8.138;2024-02-26T02:42:01;0.50;;;0.40;;
33993;SDS011;20673;48.980;8.138;2024-02-26T02:44:27;0.65;;;0.60;;
33993;SDS011;20673;48.980;8.138;2024-02-26T02:46:53;0.87;;;0.40;;
33993;SDS011;20673;48.980;8.138;2024-02-26T02:49:20;0.90;;;0.40;;
33993;SDS011;20673;48.980;8.138;2024-02-26T02:51:47;1.23;;;0.67;;
33993;SDS011;20673;48.980;8.138;2024-02-26T02:54:13;0.93;;;0.47;;
33993;SDS011;20673;48.980;8.138;2024-02-26T02:56:39;0.80;;;0.60;;
33993;SDS011;20673;48.980;8.138;2024-02-26T02:59:09;0.82;;;0.53;;
33993;SDS011;20673;48.980;8.138;2024-02-26T03:01:35;2.12;;;0.70;;
33993;SDS011;20673;48.980;8.138;2024-02-26T03:04:01;1.82;;;0.65;;
33993;SDS011;20673;48.980;8.138;2024-02-26T03:06:27;2.87;;;0.53;;
33993;SDS011;20673;48.980;8.138;2024-02-26T03:08:54;1.17;;;0.45;;
33993;SDS011;20673;48.980;8.138;2024-02-26T03:11:20;1.00;;;0.67;;
33993;SDS011;20673;48.980;8.138;2024-02-26T03:13:46;1.93;;;0.70;;
33993;SDS011;20673;48.980;8.138;2024-02-26T03:16:12;2.57;;;0.50;;
33993;SDS011;20673;48.980;8.138;2024-02-26T03:18:39;1.17;;;0.50;;
33993;SDS011;20673;48.980;8.138;2024-02-26T03:21:06;1.22;;;0.60;;
33993;SDS011;20673;48.980;8.138;2024-02-26T03:23:32;1.90;;;0.30;;
33993;SDS011;20673;48.980;8.138;2024-02-26T03:26:01;1.00;;;0.60;;
33993;SDS011;20673;48.980;8.138;2024-02-26T03:28:28;1.53;;;0.50;;
33993;SDS011;20673;48.980;8.138;2024-02-26T03:30:54;1.00;;;0.50;;
33993;SDS011;20673;48.980;8.138;2024-02-26T03:33:20;1.90;;;0.70;;
33993;SDS011;20673;48.980;8.138;2024-02-26T03:35:46;1.60;;;0.77;;
33993;SDS011;20673;48.980;8.138;2024-02-26T03:38:12;1.25;;;0.70;;
33993;SDS011;20673;48.980;8.138;2024-02-26T03:40:39;0.40;;;0.33;;
33993;SDS011;20673;48.980;8.138;2024-02-26T03:43:05;1.20;;;0.50;;
33993;SDS011;20673;48.980;8.138;2024-02-26T03:45:32;2.37;;;0.60;;
33993;SDS011;20673;48.980;8.138;2024-02-26T03:47:59;0.70;;;0.43;;
33993;SDS011;20673;48.980;8.138;2024-02-26T03:50:25;2.73;;;0.50;;
33993;SDS011;20673;48.980;8.138;2024-02-26T03:52:51;1.42;;;0.78;;
33993;SDS011;20673;48.980;8.138;2024-02-26T03:55:17;0.83;;;0.60;;
33993;SDS011;20673;48.980;8.138;2024-02-26T03:57:45;1.60;;;0.50;;
33993;SDS011;20673;48.980;8.138;2024-02-26T04:00:12;0.60;;;0.30;;
33993;SDS011;20673;48.980;8.138;2024-02-26T04:02:39;1.67;;;0.50;;
33993;SDS011;20673;48.980;8.138;2024-02-26T04:05:08;1.17;;;0.50;;
33993;SDS011;20673;48.980;8.138;2024-02-26T04:07:37;1.10;;;0.50;;
33993;SDS011;20673;48.980;8.138;2024-02-26T04:10:03;0.93;;;0.60;;
33993;SDS011;20673;48.980;8.138;2024-02-26T04:12:38;0.88;;;0.65;;
33993;SDS011;20673;48.980;8.138;2024-02-26T04:15:07;5.97;;;2.67;;
33993;SDS011;20673;48.980;8.138;2024-02-26T04:17:35;5.77;;;1.80;;
33993;SDS011;20673;48.980;8.138;2024-02-26T04:20:03;2.10;;;1.10;;
33993;SDS011;20673;48.980;8.138;2024-02-26T04:22:33;1.80;;;0.97;;
33993;SDS011;20673;48.980;8.138;2024-02-26T04:24:59;1.27;;;0.60;;
33993;SDS011;20673;48.980;8.138;2024-02-26T04:27:25;1.23;;;0.60;;
33993;SDS011;20673;48.980;8.138;2024-02-26T04:29:51;1.30;;;0.50;;
33993;SDS011;20673;48.980;8.138;2024-02-26T04:32:17;1.00;;;0.57;;
33993;SDS011;20673;48.980;8.138;2024-02-26T04:34:43;0.60;;;0.50;;
33993;SDS011;20673;48.980;8.138;2024-02-26T04:37:10;0.77;;;0.47;;
33993;SDS011;20673;48.980;8.138;2024-02-26T04:39:36;0.87;;;0.57;;
33993;SDS011;20673;48.980;8.138;2024-02-26T04:42:02;1.43;;;0.60;;
33993;SDS011;20673;48.980;8.138;2024-02-26T04:44:29;0.67;;;0.40;;
33993;SDS011;20673;48.980;8.138;2024-02-26T04:46:55;0.97;;;0.47;;
33993;SDS011;20673;48.980;8.138;2024-02-26T04:49:22;2.05;;;0.98;;
33993;SDS011;20673;48.980;8.138;2024-02-26T04:51:48;3.70;;;0.50;;
33993;SDS011;20673;48.980;8.138;2024-02-26T04:54:14;1.20;;;0.50;;
33993;SDS011;20673;48.980;8.138;2024-02-26T04:56:40;0.50;;;0.40;;
33993;SDS011;20673;48.980;8.138;2024-02-26T04:59:06;1.73;;;0.80;;
33993;SDS011;20673;48.980;8.138;2024-02-26T05:01:32;2.10;;;0.60;;
33993;SDS011;20673;48.980;8.138;2024-02-26T05:03:59;2.50;;;0.80;;
33993;SDS011;20673;48.980;8.138;2024-02-26T05:06:25;0.90;;;0.43;;
33993;SDS011;20673;48.980;8.138;2024-02-26T05:08:51;1.13;;;0.50;;
33993;SDS011;20673;48.980;8.138;2024-02-26T05:11:17;0.60;;;0.40;;
33993;SDS011;20673;48.980;8.138;2024-02-26T05:13:43;1.13;;;0.50;;
33993;SDS011;20673;48.980;8.138;2024-02-26T05:16:10;0.90;;;0.60;;
33993;SDS011;20673;48.980;8.138;2024-02-26T05:18:37;1.37;;;0.50;;
33993;SDS011;20673;48.980;8.138;2024-02-26T05:21:03;0.53;;;0.47;;
33993;SDS011;20673;48.980;8.138;2024-02-26T05:23:29;1.23;;;0.47;;
33993;SDS011;20673;48.980;8.138;2024-02-26T05:25:56;0.53;;;0.43;;
33993;SDS011;20673;48.980;8.138;2024-02-26T05:28:22;1.17;;;0.43;;
33993;SDS011;20673;48.980;8.138;2024-02-26T05:30:48;0.50;;;0.50;;
33993;SDS011;20673;48.980;8.138;2024-02-26T05:33:14;1.23;;;0.60;;
33993;SDS011;20673;48.980;8.138;2024-02-26T05:35:40;0.43;;;0.43;;
33993;SDS011;20673;48.980;8.138;2024-02-26T05:38:07;0.50;;;0.47;;
33993;SDS011;20673;48.980;8.138;2024-02-26T05:40:33;0.70;;;0.50;;
33993;SDS011;20673;48.980;8.138;2024-02-26T05:42:59;1.13;;;0.70;;
33993;SDS011;20673;48.980;8.138;2024-02-26T05:45:26;0.70;;;0.60;;
33993;SDS011;20673;48.980;8.138;2024-02-26T05:47:52;1.00;;;0.70;;
33993;SDS011;20673;48.980;8.138;2024-02-26T05:50:18;0.97;;;0.80;;
33993;SDS011;20673;48.980;8.138;2024-02-26T05:52:44;1.73;;;0.60;;
33993;SDS011;20673;48.980;8.138;2024-02-26T05:55:10;2.20;;;0.70;;
33993;SDS011;20673;48.980;8.138;2024-02-26T05:57:37;0.83;;;0.60;;
33993;SDS011;20673;48.980;8.138;2024-02-26T06:00:03;4.23;;;1.93;;
33993;SDS011;20673;48.980;8.138;2024-02-26T06:02:30;1.60;;;1.40;;
33993;SDS011;20673;48.980;8.138;2024-02-26T06:04:56;2.80;;;0.93;;
33993;SDS011;20673;48.980;8.138;2024-02-26T06:07:23;1.53;;;1.10;;
33993;SDS011;20673;48.980;8.138;2024-02-26T06:09:50;3.30;;;1.23;;
33993;SDS011;20673;48.980;8.138;2024-02-26T06:12:16;1.87;;;1.50;;
33993;SDS011;20673;48.980;8.138;2024-02-26T06:14:42;3.50;;;1.73;;
33993;SDS011;20673;48.980;8.138;2024-02-26T06:17:09;2.90;;;1.80;;
33993;SDS011;20673;48.980;8.138;2024-02-26T06:19:35;7.20;;;6.50;;
33993;SDS011;20673;48.980;8.138;2024-02-26T06:22:01;15.30;;;8.60;;
33993;SDS011;20673;48.980;8.138;2024-02-26T06:24:27;12.43;;;7.80;;
33993;SDS011;20673;48.980;8.138;2024-02-26T06:26:54;11.97;;;7.33;;
33993;SDS011;20673;48.980;8.138;2024-02-26T06:29:20;8.27;;;6.43;;
33993;SDS011;20673;48.980;8.138;2024-02-26T06:31:46;9.03;;;6.80;;
33993;SDS011;20673;48.980;8.138;2024-02-26T06:34:13;8.70;;;6.47;;
33993;SDS011;20673;48.980;8.138;2024-02-26T06:36:39;9.50;;;6.60;;
33993;SDS011;20673;48.980;8.138;2024-02-26T06:39:06;9.67;;;6.03;;
33993;SDS011;20673;48.980;8.138;2024-02-26T06:41:33;8.97;;;5.17;;
33993;SDS011;20673;48.980;8.138;2024-02-26T06:43:59;13.93;;;7.43;;
33993;SDS011;20673;48.980;8.138;2024-02-26T06:46:26;10.17;;;5.50;;
33993;SDS011;20673;48.980;8.138;2024-02-26T06:48:52;13.83;;;6.47;;
33993;SDS011;20673;48.980;8.138;2024-02-26T06:51:18;10.67;;;5.73;;
33993;SDS011;20673;48.980;8.138;2024-02-26T06:53:44;6.80;;;4.13;;
33993;SDS011;20673;48.980;8.138;2024-02-26T06:56:10;6.63;;;3.50;;
33993;SDS011;20673;48.980;8.138;2024-02-26T06:58:36;5.73;;;3.53;;
33993;SDS011;20673;48.980;8.138;2024-02-26T07:01:03;4.00;;;2.57;;
33993;SDS011;20673;48.980;8.138;2024-02-26T07:03:29;3.33;;;2.23;;
33993;SDS011;20673;48.980;8.138;2024-02-26T07:05:55;5.60;;;2.90;;
33993;SDS011;20673;48.980;8.138;2024-02-26T07:08:22;7.05;;;4.80;;
33993;SDS011;20673;48.980;8.138;2024-02-26T07:10:48;7.07;;;3.60;;
33993;SDS011;20673;48.980;8.138;2024-02-26T07:13:14;3.83;;;2.87;;
33993;SDS011;20673;48.980;8.138;2024-02-26T07:15:40;4.67;;;2.90;;
33993;SDS011;20673;48.980;8.138;2024-02-26T07:18:06;3.23;;;2.27;;
33993;SDS011;20673;48.980;8.138;2024-02-26T07:20:32;5.20;;;2.80;;
33993;SDS011;20673;48.980;8.138;2024-02-26T07:22:59;4.03;;;2.60;;
33993;SDS011;20673;48.980;8.138;2024-02-26T07:25:25;4.10;;;3.50;;
33993;SDS011;20673;48.980;8.138;2024-02-26T07:27:51;4.07;;;2.73;;
33993;SDS011;20673;48.980;8.138;2024-02-26T07:30:17;5.07;;;3.47;;
33993;SDS011;20673;48.980;8.138;2024-02-26T07:32:43;3.70;;;2.63;;
33993;SDS011;20673;48.980;8.138;2024-02-26T07:35:10;5.17;;;3.53;;
33993;SDS011;20673;48.980;8.138;2024-02-26T07:37:36;4.00;;;3.00;;
33993;SDS011;20673;48.980;8.138;2024-02-26T07:40:03;4.47;;;2.63;;
33993;SDS011;20673;48.980;8.138;2024-02-26T07:42:31;3.70;;;2.93;;
33993;SDS011;20673;48.980;8.138;2024-02-26T07:44:57;4.73;;;2.97;;
33993;SDS011;20673;48.980;8.138;2024-02-26T07:47:23;2.83;;;2.00;;
33993;SDS011;20673;48.980;8.138;2024-02-26T07:49:49;3.63;;;1.83;;
33993;SDS011;20673;48.980;8.138;2024-02-26T07:52:15;1.53;;;1.40;;
33993;SDS011;20673;48.980;8.138;2024-02-26T07:54:42;2.02;;;1.50;;
33993;SDS011;20673;48.980;8.138;2024-02-26T07:57:08;1.60;;;0.97;;
33993;SDS011;20673;48.980;8.138;2024-02-26T07:59:34;2.17;;;0.90;;
33993;SDS011;20673;48.980;8.138;2024-02-26T08:02:00;2.27;;;1.00;;
33993;SDS011;20673;48.980;8.138;2024-02-26T08:04:28;2.65;;;1.00;;
33993;SDS011;20673;48.980;8.138;2024-02-26T08:06:55;2.00;;;1.22;;
33993;SDS011;20673;48.980;8.138;2024-02-26T08:09:22;2.23;;;1.70;;
33993;SDS011;20673;48.980;8.138;2024-02-26T08:11:48;1.65;;;0.90;;
33993;SDS011;20673;48.980;8.138;2024-02-26T08:14:14;2.05;;;0.68;;
33993;SDS011;20673;48.980;8.138;2024-02-26T08:16:40;0.75;;;0.62;;
33993;SDS011;20673;48.980;8.138;2024-02-26T08:19:06;1.77;;;0.90;;
33993;SDS011;20673;48.980;8.138;2024-02-26T08:21:33;1.80;;;0.82;;
33993;SDS011;20673;48.980;8.138;2024-02-26T08:23:59;2.40;;;1.67;;
33993;SDS011;20673;48.980;8.138;2024-02-26T08:26:25;6.15;;;3.22;;
33993;SDS011;20673;48.980;8.138;2024-02-26T08:28:51;4.35;;;2.90;;
33993;SDS011;20673;48.980;8.138;2024-02-26T08:31:17;4.42;;;2.65;;
33993;SDS011;20673;48.980;8.138;2024-02-26T08:33:43;4.97;;;2.65;;
33993;SDS011;20673;48.980;8.138;2024-02-26T08:36:11;6.75;;;2.40;;
33993;SDS011;20673;48.980;8.138;2024-02-26T08:38:37;3.70;;;2.80;;
33993;SDS011;20673;48.980;8.138;2024-02-26T08:41:03;1.98;;;1.37;;
33993;SDS011;20673;48.980;8.138;2024-02-26T08:43:30;1.55;;;0.75;;
33993;SDS011;20673;48.980;8.138;2024-02-26T08:45:56;1.00;;;0.80;;
33993;SDS011;20673;48.980;8.138;2024-02-26T08:48:23;1.57;;;0.90;;
33993;SDS011;20673;48.980;8.138;2024-02-26T08:50:50;0.70;;;0.62;;
33993;SDS011;20673;48.980;8.138;2024-02-26T08:53:16;0.90;;;0.68;;
33993;SDS011;20673;48.980;8.138;2024-02-26T08:55:42;0.98;;;0.75;;
33993;SDS011;20673;48.980;8.138;2024-02-26T08:58:08;1.55;;;0.80;;
33993;SDS011;20673;48.980;8.138;2024-02-26T09:00:35;1.75;;;0.98;;
33993;SDS011;20673;48.980;8.138;2024-02-26T09:03:01;1.12;;;0.80;;
33993;SDS011;20673;48.980;8.138;2024-02-26T09:05:27;1.57;;;1.10;;
33993;SDS011;20673;48.980;8.138;2024-02-26T09:07:53;1.65;;;1.20;;
33993;SDS011;20673;48.980;8.138;2024-02-26T09:10:20;2.05;;;1.00;;
33993;SDS011;20673;48.980;8.138;2024-02-26T09:12:47;1.92;;;1.22;;
33993;SDS011;20673;48.980;8.138;2024-02-26T09:15:14;1.57;;;0.90;;
33993;SDS011;20673;48.980;8.138;2024-02-26T09:17:40;1.50;;;1.12;;
33993;SDS011;20673;48.980;8.138;2024-02-26T09:20:06;2.05;;;1.02;;
33993;SDS011;20673;48.980;8.138;2024-02-26T09:22:34;1.42;;;1.10;;
33993;SDS011;20673;48.980;8.138;2024-02-26T09:25:02;2.65;;;1.22;;
33993;SDS011;20673;48.980;8.138;2024-02-26T09:27:30;2.27;;;0.88;;
33993;SDS011;20673;48.980;8.138;2024-02-26T09:29:57;4.22;;;1.00;;
33993;SDS011;20673;48.980;8.138;2024-02-26T09:32:23;2.65;;;1.12;;
33993;SDS011;20673;48.980;8.138;2024-02-26T09:34:50;1.52;;;0.70;;
33993;SDS011;20673;48.980;8.138;2024-02-26T09:37:16;1.40;;;0.90;;
33993;SDS011;20673;48.980;8.138;2024-02-26T09:39:42;1.70;;;0.90;;
33993;SDS011;20673;48.980;8.138;2024-02-26T09:42:08;1.20;;;0.88;;
33993;SDS011;20673;48.980;8.138;2024-02-26T09:44:39;1.72;;;0.78;;
33993;SDS011;20673;48.980;8.138;2024-02-26T09:47:10;1.42;;;0.80;;
33993;SDS011;20673;48.980;8.138;2024-02-26T09:49:42;5.25;;;2.60;;
33993;SDS011;20673;48.980;8.138;2024-02-26T09:52:11;8.15;;;4.10;;
33993;SDS011;20673;48.980;8.138;2024-02-26T09:54:38;3.17;;;1.42;;
33993;SDS011;20673;48.980;8.138;2024-02-26T09:57:05;1.03;;;0.83;;
33993;SDS011;20673;48.980;8.138;2024-02-26T09:59:39;1.10;;;0.70;;
33993;SDS011;20673;48.980;8.138;2024-02-26T10:02:07;1.22;;;0.80;;
33993;SDS011;20673;48.980;8.138;2024-02-26T10:04:41;1.20;;;0.85;;
33993;SDS011;20673;48.980;8.138;2024-02-26T10:07:09;2.02;;;1.02;;
33993;SDS011;20673;48.980;8.138;2024-02-26T10:09:37;2.10;;;1.05;;
33993;SDS011;20673;48.980;8.138;2024-02-26T10:12:04;1.10;;;0.78;;
33993;SDS011;20673;48.980;8.138;2024-02-26T10:14:32;1.37;;;0.73;;
33993;SDS011;20673;48.980;8.138;2024-02-26T10:16:59;3.77;;;1.07;;
33993;SDS011;20673;48.980;8.138;2024-02-26T10:19:29;1.52;;;0.55;;
33993;SDS011;20673;48.980;8.138;2024-02-26T10:21:56;1.20;;;0.70;;
33993;SDS011;20673;48.980;8.138;2024-02-26T10:24:24;1.47;;;0.60;;
33993;SDS011;20673;48.980;8.138;2024-02-26T10:26:54;1.73;;;0.50;;
33993;SDS011;20673;48.980;8.138;2024-02-26T10:29:22;1.47;;;0.60;;
33993;SDS011;20673;48.980;8.138;2024-02-26T10:31:51;1.60;;;0.68;;
33993;SDS011;20673;48.980;8.138;2024-02-26T10:34:19;2.37;;;1.07;;
33993;SDS011;20673;48.980;8.138;2024-02-26T10:36:46;2.57;;;1.07;;
33993;SDS011;20673;48.980;8.138;2024-02-26T10:39:12;3.07;;;1.73;;
33993;SDS011;20673;48.980;8.138;2024-02-26T10:41:43;3.43;;;0.97;;
33993;SDS011;20673;48.980;8.138;2024-02-26T10:44:11;1.57;;;0.70;;
33993;SDS011;20673;48.980;8.138;2024-02-26T10:46:38;2.50;;;1.10;;
33993;SDS011;20673;48.980;8.138;2024-02-26T10:49:08;2.20;;;0.70;;
33993;SDS011;20673;48.980;8.138;2024-02-26T10:51:43;1.90;;;0.70;;
33993;SDS011;20673;48.980;8.138;2024-02-26T10:54:12;1.53;;;0.80;;
33993;SDS011;20673;48.980;8.138;2024-02-26T10:59:18;1.85;;;0.90;;
33993;SDS011;20673;48.980;8.138;2024-02-26T11:01:47;2.35;;;1.10;;
33993;SDS011;20673;48.980;8.138;2024-02-26T11:04:15;1.10;;;0.63;;
33993;SDS011;20673;48.980;8.138;2024-02-26T11:06:43;1.40;;;0.47;;
33993;SDS011;20673;48.980;8.138;2024-02-26T11:09:12;0.50;;;0.40;;
33993;SDS011;20673;48.980;8.138;2024-02-26T11:11:41;0.50;;;0.40;;
33993;SDS011;20673;48.980;8.138;2024-02-26T11:14:08;1.07;;;0.55;;
33993;SDS011;20673;48.980;8.138;2024-02-26T11:16:35;1.27;;;0.50;;
33993;SDS011;20673;48.980;8.138;2024-02-26T11:19:04;1.07;;;0.60;;
33993;SDS011;20673;48.980;8.138;2024-02-26T11:21:34;4.33;;;0.80;;
33993;SDS011;20673;48.980;8.138;2024-02-26T11:24:07;2.30;;;0.40;;
33993;SDS011;20673;48.980;8.138;2024-02-26T11:26:43;0.82;;;0.50;;
33993;SDS011;20673;48.980;8.138;2024-02-26T11:29:16;1.05;;;0.42;;
33993;SDS011;20673;48.980;8.138;2024-02-26T11:31:47;0.65;;;0.33;;
33993;SDS011;20673;48.980;8.138;2024-02-26T11:34:13;0.50;;;0.30;;
33993;SDS011;20673;48.980;8.138;2024-02-26T11:36:40;1.67;;;0.50;;
33993;SDS011;20673;48.980;8.138;2024-02-26T11:39:07;0.60;;;0.40;;
33993;SDS011;20673;48.980;8.138;2024-02-26T11:41:34;2.62;;;0.60;;
33993;SDS011;20673;48.980;8.138;2024-02-26T11:44:02;12.15;;;9.28;;
33993;SDS011;20673;48.980;8.138;2024-02-26T11:46:33;2.22;;;0.98;;
33993;SDS011;20673;48.980;8.138;2024-02-26T11:51:56;4.95;;;2.42;;
33993;SDS011;20673;48.980;8.138;2024-02-26T11:57:21;0.60;;;0.40;;
33993;SDS011;20673;48.980;8.138;2024-02-26T12:02:46;0.67;;;0.50;;
33993;SDS011;20673;48.980;8.138;2024-02-26T12:05:18;0.93;;;0.50;;
33993;SDS011;20673;48.980;8.138;2024-02-26T12:08:34;0.67;;;0.37;;
33993;SDS011;20673;48.980;8.138;2024-02-26T12:13:16;0.85;;;0.50;;
33993;SDS011;20673;48.980;8.138;2024-02-26T12:15:45;0.80;;;0.57;;
33993;SDS011;20673;48.980;8.138;2024-02-26T12:18:23;1.10;;;0.53;;
33993;SDS011;20673;48.980;8.138;2024-02-26T12:21:02;1.07;;;0.60;;
33993;SDS011;20673;48.980;8.138;2024-02-26T12:23:29;1.40;;;0.70;;
33993;SDS011;20673;48.980;8.138;2024-02-26T12:25:59;1.87;;;0.60;;
33993;SDS011;20673;48.980;8.138;2024-02-26T12:28:44;0.55;;;0.40;;
33993;SDS011;20673;48.980;8.138;2024-02-26T12:31:12;0.90;;;0.60;;
33993;SDS011;20673;48.980;8.138;2024-02-26T12:33:39;0.50;;;0.35;;
33993;SDS011;20673;48.980;8.138;2024-02-26T12:36:06;1.00;;;0.30;;
33993;SDS011;20673;48.980;8.138;2024-02-26T12:38:33;0.85;;;0.30;;
33993;SDS011;20673;48.980;8.138;2024-02-26T12:41:01;0.60;;;0.43;;
33993;SDS011;20673;48.980;8.138;2024-02-26T12:43:28;0.97;;;0.30;;
33993;SDS011;20673;48.980;8.138;2024-02-26T12:45:55;1.00;;;0.60;;
33993;SDS011;20673;48.980;8.138;2024-02-26T12:48:21;1.23;;;0.60;;
33993;SDS011;20673;48.980;8.138;2024-02-26T12:50:47;0.37;;;0.30;;
33993;SDS011;20673;48.980;8.138;2024-02-26T12:53:14;0.27;;;0.23;;
33993;SDS011;20673;48.980;8.138;2024-02-26T12:55:40;0.80;;;0.50;;
33993;SDS011;20673;48.980;8.138;2024-02-26T12:58:08;4.03;;;1.90;;
33993;SDS011;20673;48.980;8.138;2024-02-26T13:00:34;2.53;;;1.00;;
33993;SDS011;20673;48.980;8.138;2024-02-26T13:03:01;1.93;;;0.70;;
33993;SDS011;20673;48.980;8.138;2024-02-26T13:05:28;1.95;;;1.22;;
33993;SDS011;20673;48.980;8.138;2024-02-26T13:07:55;1.35;;;0.60;;
33993;SDS011;20673;48.980;8.138;2024-02-26T13:10:21;3.17;;;0.77;;
33993;SDS011;20673;48.980;8.138;2024-02-26T13:12:48;4.67;;;1.90;;
33993;SDS011;20673;48.980;8.138;2024-02-26T13:15:21;2.87;;;1.75;;
33993;SDS011;20673;48.980;8.138;2024-02-26T13:17:48;3.27;;;1.57;;
33993;SDS011;20673;48.980;8.138;2024-02-26T13:20:25;1.80;;;1.07;;
33993;SDS011;20673;48.980;8.138;2024-02-26T13:23:04;0.77;;;0.50;;
33993;SDS011;20673;48.980;8.138;2024-02-26T13:25:33;0.80;;;0.30;;
33993;SDS011;20673;48.980;8.138;2024-02-26T13:30:39;1.30;;;0.43;;
33993;SDS011;20673;48.980;8.138;2024-02-26T13:33:11;0.73;;;0.40;;
33993;SDS011;20673;48.980;8.138;2024-02-26T13:35:38;1.87;;;0.60;;
33993;SDS011;20673;48.980;8.138;2024-02-26T13:38:05;3.10;;;0.50;;
33993;SDS011;20673;48.980;8.138;2024-02-26T13:40:32;0.93;;;0.57;;
33993;SDS011;20673;48.980;8.138;2024-02-26T13:42:59;0.78;;;0.40;;
33993;SDS011;20673;48.980;8.138;2024-02-26T13:45:26;1.15;;;0.40;;
33993;SDS011;20673;48.980;8.138;2024-02-26T13:47:53;1.25;;;0.68;;
33993;SDS011;20673;48.980;8.138;2024-02-26T13:50:19;1.73;;;0.70;;
33993;SDS011;20673;48.980;8.138;2024-02-26T13:52:47;1.77;;;0.77;;
33993;SDS011;20673;48.980;8.138;2024-02-26T13:55:15;1.12;;;0.80;;
33993;SDS011;20673;48.980;8.138;2024-02-26T13:57:41;3.30;;;1.25;;
33993;SDS011;20673;48.980;8.138;2024-02-26T14:00:08;1.23;;;0.80;;
33993;SDS011;20673;48.980;8.138;2024-02-26T14:02:35;1.10;;;0.70;;
33993;SDS011;20673;48.980;8.138;2024-02-26T14:05:02;0.75;;;0.40;;
33993;SDS011;20673;48.980;8.138;2024-02-26T14:07:29;1.95;;;0.60;;
33993;SDS011;20673;48.980;8.138;2024-02-26T14:09:57;0.60;;;0.55;;
33993;SDS011;20673;48.980;8.138;2024-02-26T14:12:24;0.93;;;0.62;;
33993;SDS011;20673;48.980;8.138;2024-02-26T14:14:50;0.87;;;0.50;;
33993;SDS011;20673;48.980;8.138;2024-02-26T14:17:18;0.80;;;0.40;;
33993;SDS011;20673;48.980;8.138;2024-02-26T14:19:45;1.07;;;0.80;;
33993;SDS011;20673;48.980;8.138;2024-02-26T14:22:13;1.70;;;1.10;;
33993;SDS011;20673;48.980;8.138;2024-02-26T14:24:41;2.92;;;0.72;;
33993;SDS011;20673;48.980;8.138;2024-02-26T14:27:08;1.53;;;0.63;;
33993;SDS011;20673;48.980;8.138;2024-02-26T14:29:38;0.70;;;0.50;;
33993;SDS011;20673;48.980;8.138;2024-02-26T14:32:06;0.50;;;0.40;;
33993;SDS011;20673;48.980;8.138;2024-02-26T14:34:33;0.93;;;0.63;;
33993;SDS011;20673;48.980;8.138;2024-02-26T14:36:59;1.10;;;0.90;;
33993;SDS011;20673;48.980;8.138;2024-02-26T14:39:25;1.33;;;0.73;;
33993;SDS011;20673;48.980;8.138;2024-02-26T14:41:51;1.42;;;0.80;;
33993;SDS011;20673;48.980;8.138;2024-02-26T14:44:17;1.10;;;0.60;;
33993;SDS011;20673;48.980;8.138;2024-02-26T14:46:43;1.80;;;1.20;;
33993;SDS011;20673;48.980;8.138;2024-02-26T14:51:49;2.90;;;1.00;;
33993;SDS011;20673;48.980;8.138;2024-02-26T14:54:16;2.12;;;0.88;;
33993;SDS011;20673;48.980;8.138;2024-02-26T14:56:42;0.90;;;0.60;;
33993;SDS011;20673;48.980;8.138;2024-02-26T14:59:08;0.98;;;0.60;;
33993;SDS011;20673;48.980;8.138;2024-02-26T15:01:34;1.70;;;0.70;;
33993;SDS011;20673;48.980;8.138;2024-02-26T15:04:00;2.75;;;0.60;;
33993;SDS011;20673;48.980;8.138;2024-02-26T15:06:26;2.37;;;0.93;;